sensor_id;sensor_type;location;lat;lon;timestamp;pressure;altitude;pressure_sealevel;temperature;humidity
84245;BME280;74383;44.552;18.100;2023-12-20T00:00:52;99809.03;;;0.84;76.33
84245;BME280;74383;44.552;18.100;2023-12-20T00:03:17;99803.19;;;0.90;76.92
84245;BME280;74383;44.552;18.100;2023-12-20T00:05:43;99809.84;;;0.85;77.66
84245;BME280;74383;44.552;18.100;2023-12-20T00:08:09;99795.91;;;0.94;77.67
84245;BME280;74383;44.552;18.100;2023-12-20T00:10:35;99792.09;;;0.88;75.94
84245;BME280;74383;44.552;18.100;2023-12-20T00:13:00;99793.88;;;0.88;75.42
84245;BME280;74383;44.552;18.100;2023-12-20T00:15:26;99792.31;;;0.77;77.14
84245;BME280;74383;44.552;18.100;2023-12-20T00:17:51;99785.22;;;0.70;79.52
84245;BME280;74383;44.552;18.100;2023-12-20T00:20:17;99779.16;;;0.87;79.21
84245;BME280;74383;44.552;18.100;2023-12-20T00:22:42;99781.88;;;0.77;76.79
84245;BME280;74383;44.552;18.100;2023-12-20T00:25:08;99787.00;;;0.87;76.10
84245;BME280;74383;44.552;18.100;2023-12-20T00:27:33;99782.38;;;0.98;76.04
84245;BME280;74383;44.552;18.100;2023-12-20T00:29:59;99782.06;;;1.01;75.96
84245;BME280;74383;44.552;18.100;2023-12-20T00:32:25;99779.84;;;0.89;76.05
84245;BME280;74383;44.552;18.100;2023-12-20T00:34:50;99775.13;;;0.92;74.90
84245;BME280;74383;44.552;18.100;2023-12-20T00:37:16;99773.63;;;0.90;74.68
84245;BME280;74383;44.552;18.100;2023-12-20T00:39:41;99765.75;;;0.82;75.34
84245;BME280;74383;44.552;18.100;2023-12-20T00:42:07;99772.69;;;0.73;76.09
84245;BME280;74383;44.552;18.100;2023-12-20T00:44:33;99764.69;;;0.75;76.20
84245;BME280;74383;44.552;18.100;2023-12-20T00:46:58;99763.06;;;0.74;76.32
84245;BME280;74383;44.552;18.100;2023-12-20T00:49:24;99761.03;;;0.68;75.13
84245;BME280;74383;44.552;18.100;2023-12-20T00:51:49;99764.78;;;0.83;75.64
84245;BME280;74383;44.552;18.100;2023-12-20T00:54:16;99752.69;;;0.64;74.64
84245;BME280;74383;44.552;18.100;2023-12-20T00:56:41;99751.13;;;0.71;75.21
84245;BME280;74383;44.552;18.100;2023-12-20T00:59:07;99749.84;;;0.75;75.86
84245;BME280;74383;44.552;18.100;2023-12-20T01:01:32;99753.88;;;0.70;75.86
84245;BME280;74383;44.552;18.100;2023-12-20T01:04:19;99737.59;;;0.76;76.17
84245;BME280;74383;44.552;18.100;2023-12-20T01:07:10;99737.25;;;0.71;73.82
84245;BME280;74383;44.552;18.100;2023-12-20T01:09:36;99737.22;;;0.35;75.56
84245;BME280;74383;44.552;18.100;2023-12-20T01:12:02;99736.34;;;0.44;77.22
84245;BME280;74383;44.552;18.100;2023-12-20T01:14:27;99734.63;;;0.53;76.29
84245;BME280;74383;44.552;18.100;2023-12-20T01:16:53;99733.94;;;0.33;76.75
84245;BME280;74383;44.552;18.100;2023-12-20T01:19:18;99724.53;;;0.40;76.74
84245;BME280;74383;44.552;18.100;2023-12-20T01:21:44;99729.72;;;0.50;76.41
84245;BME280;74383;44.552;18.100;2023-12-20T01:24:09;99727.91;;;0.50;76.56
84245;BME280;74383;44.552;18.100;2023-12-20T01:26:35;99720.16;;;0.41;76.78
84245;BME280;74383;44.552;18.100;2023-12-20T01:29:00;99716.78;;;0.48;76.35
84245;BME280;74383;44.552;18.100;2023-12-20T01:31:45;99706.94;;;0.42;74.94
84245;BME280;74383;44.552;18.100;2023-12-20T01:34:10;99714.34;;;0.47;75.15
84245;BME280;74383;44.552;18.100;2023-12-20T01:36:36;99710.66;;;0.57;75.50
84245;BME280;74383;44.552;18.100;2023-12-20T01:39:01;99705.00;;;0.62;75.64
84245;BME280;74383;44.552;18.100;2023-12-20T01:41:27;99703.19;;;0.45;76.34
84245;BME280;74383;44.552;18.100;2023-12-20T01:43:52;99703.66;;;0.40;75.63
84245;BME280;74383;44.552;18.100;2023-12-20T01:46:20;99694.19;;;0.39;77.17
84245;BME280;74383;44.552;18.100;2023-12-20T01:48:47;99692.75;;;0.45;76.51
84245;BME280;74383;44.552;18.100;2023-12-20T01:51:38;99680.31;;;0.39;76.60
84245;BME280;74383;44.552;18.100;2023-12-20T01:54:27;99683.38;;;0.34;77.10
84245;BME280;74383;44.552;18.100;2023-12-20T01:57:18;99675.69;;;0.50;76.69
84245;BME280;74383;44.552;18.100;2023-12-20T02:00:11;99665.84;;;0.44;76.97
84245;BME280;74383;44.552;18.100;2023-12-20T02:02:39;99665.63;;;0.38;76.46
84245;BME280;74383;44.552;18.100;2023-12-20T02:05:23;99658.09;;;0.35;76.75
84245;BME280;74383;44.552;18.100;2023-12-20T02:07:50;99658.75;;;0.37;76.59
84245;BME280;74383;44.552;18.100;2023-12-20T02:10:16;99651.16;;;0.43;75.56
84245;BME280;74383;44.552;18.100;2023-12-20T02:12:42;99653.59;;;0.45;75.48
84245;BME280;74383;44.552;18.100;2023-12-20T02:15:33;99647.13;;;0.49;75.30
84245;BME280;74383;44.552;18.100;2023-12-20T02:17:59;99636.31;;;0.44;74.46
84245;BME280;74383;44.552;18.100;2023-12-20T02:20:24;99627.50;;;0.45;74.88
84245;BME280;74383;44.552;18.100;2023-12-20T02:22:50;99630.28;;;0.43;75.31
84245;BME280;74383;44.552;18.100;2023-12-20T02:25:40;99628.19;;;0.29;75.54
84245;BME280;74383;44.552;18.100;2023-12-20T02:28:06;99622.53;;;0.16;75.60
84245;BME280;74383;44.552;18.100;2023-12-20T02:30:32;99621.16;;;0.30;75.37
84245;BME280;74383;44.552;18.100;2023-12-20T02:32:59;99620.38;;;0.29;75.10
84245;BME280;74383;44.552;18.100;2023-12-20T02:35:25;99614.94;;;0.23;75.64
84245;BME280;74383;44.552;18.100;2023-12-20T02:37:51;99609.41;;;0.08;75.83
84245;BME280;74383;44.552;18.100;2023-12-20T02:40:16;99610.00;;;0.02;77.44
84245;BME280;74383;44.552;18.100;2023-12-20T02:42:42;99604.56;;;0.13;77.51
84245;BME280;74383;44.552;18.100;2023-12-20T02:45:07;99601.94;;;0.13;77.13
84245;BME280;74383;44.552;18.100;2023-12-20T02:47:33;99600.28;;;0.12;78.62
84245;BME280;74383;44.552;18.100;2023-12-20T02:49:59;99602.78;;;0.14;76.90
84245;BME280;74383;44.552;18.100;2023-12-20T02:52:24;99598.44;;;0.22;76.33
84245;BME280;74383;44.552;18.100;2023-12-20T02:54:50;99590.91;;;0.19;76.16
84245;BME280;74383;44.552;18.100;2023-12-20T02:57:16;99591.81;;;0.10;76.95
84245;BME280;74383;44.552;18.100;2023-12-20T02:59:41;99582.44;;;0.17;77.37
84245;BME280;74383;44.552;18.100;2023-12-20T03:02:07;99587.34;;;0.20;77.57
84245;BME280;74383;44.552;18.100;2023-12-20T03:04:32;99578.69;;;0.20;78.62
84245;BME280;74383;44.552;18.100;2023-12-20T03:06:58;99574.88;;;0.32;78.16
84245;BME280;74383;44.552;18.100;2023-12-20T03:09:24;99577.78;;;0.29;77.12
84245;BME280;74383;44.552;18.100;2023-12-20T03:11:49;99570.47;;;0.32;75.96
84245;BME280;74383;44.552;18.100;2023-12-20T03:14:15;99575.53;;;0.34;76.16
84245;BME280;74383;44.552;18.100;2023-12-20T03:16:40;99571.28;;;0.33;76.32
84245;BME280;74383;44.552;18.100;2023-12-20T03:19:06;99574.56;;;0.35;75.68
84245;BME280;74383;44.552;18.100;2023-12-20T03:21:31;99567.69;;;0.34;74.89
84245;BME280;74383;44.552;18.100;2023-12-20T03:23:57;99571.56;;;0.30;75.39
84245;BME280;74383;44.552;18.100;2023-12-20T03:26:23;99572.00;;;0.17;75.19
84245;BME280;74383;44.552;18.100;2023-12-20T03:28:48;99565.94;;;0.17;75.98
84245;BME280;74383;44.552;18.100;2023-12-20T03:31:14;99564.75;;;0.29;75.40
84245;BME280;74383;44.552;18.100;2023-12-20T03:33:39;99560.66;;;0.26;75.22
84245;BME280;74383;44.552;18.100;2023-12-20T03:36:05;99554.09;;;0.22;75.43
84245;BME280;74383;44.552;18.100;2023-12-20T03:38:31;99550.38;;;0.07;75.82
84245;BME280;74383;44.552;18.100;2023-12-20T03:40:57;99554.97;;;0.13;76.02
84245;BME280;74383;44.552;18.100;2023-12-20T03:43:22;99553.63;;;0.09;76.84
84245;BME280;74383;44.552;18.100;2023-12-20T03:45:48;99541.56;;;0.08;75.77
84245;BME280;74383;44.552;18.100;2023-12-20T03:48:13;99546.13;;;-0.12;77.55
84245;BME280;74383;44.552;18.100;2023-12-20T03:50:39;99540.59;;;-0.09;78.87
84245;BME280;74383;44.552;18.100;2023-12-20T03:53:04;99537.19;;;-0.09;79.70
84245;BME280;74383;44.552;18.100;2023-12-20T03:55:30;99540.53;;;0.01;79.69
84245;BME280;74383;44.552;18.100;2023-12-20T03:57:55;99536.50;;;0.07;79.10
84245;BME280;74383;44.552;18.100;2023-12-20T04:00:21;99540.44;;;0.11;76.83
84245;BME280;74383;44.552;18.100;2023-12-20T04:02:46;99533.59;;;0.10;76.04
84245;BME280;74383;44.552;18.100;2023-12-20T04:05:12;99537.47;;;0.23;75.61
84245;BME280;74383;44.552;18.100;2023-12-20T04:07:38;99537.28;;;0.25;75.41
84245;BME280;74383;44.552;18.100;2023-12-20T04:10:04;99532.28;;;0.31;75.14
84245;BME280;74383;44.552;18.100;2023-12-20T04:12:31;99521.28;;;0.20;75.07
84245;BME280;74383;44.552;18.100;2023-12-20T04:14:56;99516.81;;;0.12;75.17
84245;BME280;74383;44.552;18.100;2023-12-20T04:17:22;99518.97;;;0.17;75.66
84245;BME280;74383;44.552;18.100;2023-12-20T04:19:48;99519.72;;;0.09;75.29
84245;BME280;74383;44.552;18.100;2023-12-20T04:22:15;99517.88;;;0.02;75.80
84245;BME280;74383;44.552;18.100;2023-12-20T04:24:40;99520.84;;;0.07;75.84
84245;BME280;74383;44.552;18.100;2023-12-20T04:27:07;99525.03;;;0.17;75.11
84245;BME280;74383;44.552;18.100;2023-12-20T04:29:33;99524.94;;;0.09;75.57
84245;BME280;74383;44.552;18.100;2023-12-20T04:31:59;99520.03;;;0.06;76.10
84245;BME280;74383;44.552;18.100;2023-12-20T04:34:25;99516.75;;;0.04;76.83
84245;BME280;74383;44.552;18.100;2023-12-20T04:36:51;99507.34;;;0.11;74.66
84245;BME280;74383;44.552;18.100;2023-12-20T04:39:17;99508.91;;;0.04;75.18
84245;BME280;74383;44.552;18.100;2023-12-20T04:41:42;99501.75;;;0.06;75.61
84245;BME280;74383;44.552;18.100;2023-12-20T04:44:08;99512.81;;;0.00;76.51
84245;BME280;74383;44.552;18.100;2023-12-20T04:46:33;99512.00;;;-0.01;77.54
84245;BME280;74383;44.552;18.100;2023-12-20T04:48:59;99507.44;;;0.02;77.61
84245;BME280;74383;44.552;18.100;2023-12-20T04:51:25;99511.88;;;0.09;75.78
84245;BME280;74383;44.552;18.100;2023-12-20T04:53:50;99516.41;;;-0.01;75.71
84245;BME280;74383;44.552;18.100;2023-12-20T04:56:16;99519.34;;;0.04;75.26
84245;BME280;74383;44.552;18.100;2023-12-20T04:58:42;99513.00;;;0.07;75.11
84245;BME280;74383;44.552;18.100;2023-12-20T05:01:08;99519.66;;;0.01;75.11
84245;BME280;74383;44.552;18.100;2023-12-20T05:03:34;99510.53;;;-0.03;75.52
84245;BME280;74383;44.552;18.100;2023-12-20T05:05:59;99518.03;;;0.00;76.40
84245;BME280;74383;44.552;18.100;2023-12-20T05:08:25;99518.69;;;0.02;75.46
84245;BME280;74383;44.552;18.100;2023-12-20T05:10:53;99511.09;;;0.09;75.23
84245;BME280;74383;44.552;18.100;2023-12-20T05:13:19;99507.75;;;-0.02;75.98
84245;BME280;74383;44.552;18.100;2023-12-20T05:15:44;99514.69;;;-0.10;76.02
84245;BME280;74383;44.552;18.100;2023-12-20T05:18:10;99507.22;;;-0.05;76.13
84245;BME280;74383;44.552;18.100;2023-12-20T05:20:35;99516.09;;;-0.16;76.84
84245;BME280;74383;44.552;18.100;2023-12-20T05:23:01;99508.69;;;-0.03;76.06
84245;BME280;74383;44.552;18.100;2023-12-20T05:25:27;99499.16;;;-0.12;75.72
84245;BME280;74383;44.552;18.100;2023-12-20T05:27:52;99490.16;;;-0.17;75.86
84245;BME280;74383;44.552;18.100;2023-12-20T05:30:18;99484.50;;;-0.13;75.27
84245;BME280;74383;44.552;18.100;2023-12-20T05:32:43;99488.59;;;-0.10;75.78
84245;BME280;74383;44.552;18.100;2023-12-20T05:35:09;99484.66;;;-0.14;75.78
84245;BME280;74383;44.552;18.100;2023-12-20T05:37:35;99484.50;;;-0.13;75.71
84245;BME280;74383;44.552;18.100;2023-12-20T05:40:01;99479.81;;;-0.09;75.00
84245;BME280;74383;44.552;18.100;2023-12-20T05:42:26;99473.31;;;-0.05;75.18
84245;BME280;74383;44.552;18.100;2023-12-20T05:44:52;99476.16;;;-0.16;75.84
84245;BME280;74383;44.552;18.100;2023-12-20T05:47:17;99474.44;;;-0.08;76.40
84245;BME280;74383;44.552;18.100;2023-12-20T05:49:44;99475.56;;;-0.10;75.83
84245;BME280;74383;44.552;18.100;2023-12-20T05:52:09;99480.19;;;-0.04;76.02
84245;BME280;74383;44.552;18.100;2023-12-20T05:54:35;99479.22;;;-0.03;75.73
84245;BME280;74383;44.552;18.100;2023-12-20T05:57:00;99473.78;;;-0.10;74.85
84245;BME280;74383;44.552;18.100;2023-12-20T05:59:26;99476.47;;;-0.19;76.44
84245;BME280;74383;44.552;18.100;2023-12-20T06:01:52;99482.25;;;-0.08;77.59
84245;BME280;74383;44.552;18.100;2023-12-20T06:04:17;99473.84;;;-0.02;77.06
84245;BME280;74383;44.552;18.100;2023-12-20T06:06:43;99463.00;;;0.11;75.87
84245;BME280;74383;44.552;18.100;2023-12-20T06:09:09;99469.53;;;0.15;74.92
84245;BME280;74383;44.552;18.100;2023-12-20T06:11:36;99464.06;;;0.00;75.61
84245;BME280;74383;44.552;18.100;2023-12-20T06:14:03;99463.00;;;0.11;75.26
84245;BME280;74383;44.552;18.100;2023-12-20T06:16:30;99461.34;;;0.10;76.67
84245;BME280;74383;44.552;18.100;2023-12-20T06:18:56;99466.00;;;-0.02;77.55
84245;BME280;74383;44.552;18.100;2023-12-20T06:21:22;99472.09;;;0.07;77.03
84245;BME280;74383;44.552;18.100;2023-12-20T06:23:47;99464.22;;;-0.01;76.49
84245;BME280;74383;44.552;18.100;2023-12-20T06:26:13;99464.94;;;0.09;75.64
84245;BME280;74383;44.552;18.100;2023-12-20T06:28:39;99456.66;;;0.14;74.38
84245;BME280;74383;44.552;18.100;2023-12-20T06:31:05;99459.63;;;0.19;73.53
84245;BME280;74383;44.552;18.100;2023-12-20T06:33:30;99464.13;;;0.09;73.81
84245;BME280;74383;44.552;18.100;2023-12-20T06:35:57;99458.09;;;0.08;74.77
84245;BME280;74383;44.552;18.100;2023-12-20T06:38:22;99461.63;;;-0.01;74.90
84245;BME280;74383;44.552;18.100;2023-12-20T06:40:48;99467.56;;;-0.09;75.95
84245;BME280;74383;44.552;18.100;2023-12-20T06:43:14;99468.84;;;0.05;76.25
84245;BME280;74383;44.552;18.100;2023-12-20T06:45:39;99468.22;;;0.11;74.39
84245;BME280;74383;44.552;18.100;2023-12-20T06:48:06;99468.06;;;0.13;72.98
84245;BME280;74383;44.552;18.100;2023-12-20T06:50:32;99465.97;;;0.16;73.27
84245;BME280;74383;44.552;18.100;2023-12-20T06:52:58;99475.78;;;0.22;73.44
84245;BME280;74383;44.552;18.100;2023-12-20T06:55:23;99458.50;;;0.21;73.33
84245;BME280;74383;44.552;18.100;2023-12-20T06:57:49;99458.69;;;0.02;74.46
84245;BME280;74383;44.552;18.100;2023-12-20T07:00:15;99468.06;;;0.13;74.28
84245;BME280;74383;44.552;18.100;2023-12-20T07:02:41;99461.09;;;0.21;73.86
84245;BME280;74383;44.552;18.100;2023-12-20T07:05:07;99459.16;;;0.23;73.35
84245;BME280;74383;44.552;18.100;2023-12-20T07:07:32;99462.47;;;0.33;73.59
84245;BME280;74383;44.552;18.100;2023-12-20T07:09:58;99461.56;;;0.17;74.70
84245;BME280;74383;44.552;18.100;2023-12-20T07:12:24;99454.66;;;0.08;75.25
84245;BME280;74383;44.552;18.100;2023-12-20T07:14:49;99458.09;;;0.08;75.80
84245;BME280;74383;44.552;18.100;2023-12-20T07:17:15;99453.88;;;0.15;75.77
84245;BME280;74383;44.552;18.100;2023-12-20T07:19:41;99449.34;;;0.17;75.02
84245;BME280;74383;44.552;18.100;2023-12-20T07:22:07;99446.81;;;0.33;74.04
84245;BME280;74383;44.552;18.100;2023-12-20T07:24:34;99448.13;;;0.29;74.69
84245;BME280;74383;44.552;18.100;2023-12-20T07:27:00;99444.59;;;0.38;75.11
84245;BME280;74383;44.552;18.100;2023-12-20T07:29:26;99444.31;;;0.49;74.96
84245;BME280;74383;44.552;18.100;2023-12-20T07:31:54;99444.09;;;0.43;76.16
84245;BME280;74383;44.552;18.100;2023-12-20T07:34:21;99434.16;;;0.38;77.36
84245;BME280;74383;44.552;18.100;2023-12-20T07:36:49;99432.63;;;0.62;76.51
84245;BME280;74383;44.552;18.100;2023-12-20T07:39:16;99430.88;;;0.78;76.08
84245;BME280;74383;44.552;18.100;2023-12-20T07:41:41;99433.34;;;0.80;75.62
84245;BME280;74383;44.552;18.100;2023-12-20T07:44:07;99432.75;;;1.02;75.42
84245;BME280;74383;44.552;18.100;2023-12-20T07:46:33;99429.81;;;1.05;75.65
84245;BME280;74383;44.552;18.100;2023-12-20T07:48:58;99433.75;;;1.09;75.45
84245;BME280;74383;44.552;18.100;2023-12-20T07:51:24;99445.06;;;1.26;75.67
84245;BME280;74383;44.552;18.100;2023-12-20T07:53:51;99431.53;;;1.38;75.79
84245;BME280;74383;44.552;18.100;2023-12-20T07:56:18;99429.09;;;1.45;75.63
84245;BME280;74383;44.552;18.100;2023-12-20T07:58:44;99437.38;;;1.24;76.49
84245;BME280;74383;44.552;18.100;2023-12-20T08:01:11;99436.75;;;1.38;76.40
84245;BME280;74383;44.552;18.100;2023-12-20T08:03:37;99430.88;;;1.60;75.93
84245;BME280;74383;44.552;18.100;2023-12-20T08:06:03;99424.34;;;1.56;75.85
84245;BME280;74383;44.552;18.100;2023-12-20T08:08:29;99425.16;;;1.73;75.76
84245;BME280;74383;44.552;18.100;2023-12-20T08:10:54;99418.78;;;1.59;76.70
84245;BME280;74383;44.552;18.100;2023-12-20T08:13:20;99414.22;;;1.78;75.82
84245;BME280;74383;44.552;18.100;2023-12-20T08:15:50;99410.47;;;1.72;76.67
84245;BME280;74383;44.552;18.100;2023-12-20T08:18:16;99414.72;;;1.65;76.30
84245;BME280;74383;44.552;18.100;2023-12-20T08:20:41;99411.59;;;1.69;75.97
84245;BME280;74383;44.552;18.100;2023-12-20T08:23:07;99416.16;;;1.92;76.04
84245;BME280;74383;44.552;18.100;2023-12-20T08:25:32;99415.31;;;2.15;75.25
84245;BME280;74383;44.552;18.100;2023-12-20T08:27:58;99409.91;;;2.25;74.78
84245;BME280;74383;44.552;18.100;2023-12-20T08:30:24;99404.88;;;2.54;75.20
84245;BME280;74383;44.552;18.100;2023-12-20T08:32:50;99405.81;;;2.69;74.00
84245;BME280;74383;44.552;18.100;2023-12-20T08:35:16;99406.59;;;2.78;74.03
84245;BME280;74383;44.552;18.100;2023-12-20T08:37:43;99404.56;;;2.88;73.86
84245;BME280;74383;44.552;18.100;2023-12-20T08:40:09;99399.38;;;3.11;72.75
84245;BME280;74383;44.552;18.100;2023-12-20T08:42:35;99397.94;;;3.31;73.03
84245;BME280;74383;44.552;18.100;2023-12-20T08:45:00;99380.28;;;3.62;72.45
84245;BME280;74383;44.552;18.100;2023-12-20T08:47:26;99388.13;;;3.70;71.22
84245;BME280;74383;44.552;18.100;2023-12-20T08:49:52;99369.69;;;3.93;71.20
84245;BME280;74383;44.552;18.100;2023-12-20T08:52:25;99384.22;;;3.66;71.69
84245;BME280;74383;44.552;18.100;2023-12-20T08:54:55;99373.00;;;3.72;71.40
84245;BME280;74383;44.552;18.100;2023-12-20T08:57:20;99374.78;;;3.95;71.53
84245;BME280;74383;44.552;18.100;2023-12-20T08:59:47;99375.88;;;4.15;71.07
84245;BME280;74383;44.552;18.100;2023-12-20T09:02:13;99367.91;;;4.08;70.27
84245;BME280;74383;44.552;18.100;2023-12-20T09:04:39;99364.28;;;4.38;69.67
84245;BME280;74383;44.552;18.100;2023-12-20T09:07:05;99364.16;;;4.61;69.57
84245;BME280;74383;44.552;18.100;2023-12-20T09:09:31;99360.31;;;4.78;68.83
84245;BME280;74383;44.552;18.100;2023-12-20T09:11:57;99349.38;;;4.75;68.03
84245;BME280;74383;44.552;18.100;2023-12-20T09:14:23;99348.63;;;5.17;67.76
84245;BME280;74383;44.552;18.100;2023-12-20T09:16:49;99350.59;;;5.57;67.62
84245;BME280;74383;44.552;18.100;2023-12-20T09:19:19;99330.41;;;5.64;66.04
84245;BME280;74383;44.552;18.100;2023-12-20T09:21:45;99335.53;;;5.93;66.32
84245;BME280;74383;44.552;18.100;2023-12-20T09:24:10;99331.66;;;6.30;65.18
84245;BME280;74383;44.552;18.100;2023-12-20T09:26:36;99334.16;;;6.45;65.25
84245;BME280;74383;44.552;18.100;2023-12-20T09:29:02;99330.22;;;6.62;63.99
84245;BME280;74383;44.552;18.100;2023-12-20T09:31:28;99325.88;;;6.41;63.23
84245;BME280;74383;44.552;18.100;2023-12-20T09:33:53;99315.84;;;6.78;63.48
84245;BME280;74383;44.552;18.100;2023-12-20T09:36:19;99317.69;;;6.84;63.23
84245;BME280;74383;44.552;18.100;2023-12-20T09:38:45;99307.19;;;7.10;63.30
84245;BME280;74383;44.552;18.100;2023-12-20T09:41:37;99307.16;;;6.90;62.34
84245;BME280;74383;44.552;18.100;2023-12-20T09:44:08;99299.97;;;6.10;65.66
84245;BME280;74383;44.552;18.100;2023-12-20T09:46:39;99292.50;;;6.21;66.12
84245;BME280;74383;44.552;18.100;2023-12-20T09:49:08;99287.66;;;6.24;65.99
84245;BME280;74383;44.552;18.100;2023-12-20T09:51:34;99282.72;;;6.08;66.38
84245;BME280;74383;44.552;18.100;2023-12-20T09:54:03;99282.16;;;5.57;67.78
84245;BME280;74383;44.552;18.100;2023-12-20T09:56:29;99285.75;;;5.77;68.35
84245;BME280;74383;44.552;18.100;2023-12-20T09:58:55;99283.34;;;5.82;68.35
84245;BME280;74383;44.552;18.100;2023-12-20T10:01:22;99279.97;;;5.88;68.15
84245;BME280;74383;44.552;18.100;2023-12-20T10:03:50;99280.34;;;5.85;68.69
84245;BME280;74383;44.552;18.100;2023-12-20T10:06:16;99276.25;;;6.10;67.24
84245;BME280;74383;44.552;18.100;2023-12-20T10:08:42;99271.63;;;6.19;66.56
84245;BME280;74383;44.552;18.100;2023-12-20T10:11:08;99268.06;;;6.40;66.72
84245;BME280;74383;44.552;18.100;2023-12-20T10:13:39;99265.47;;;6.46;66.42
84245;BME280;74383;44.552;18.100;2023-12-20T10:16:06;99253.56;;;6.70;66.74
84245;BME280;74383;44.552;18.100;2023-12-20T10:18:33;99255.97;;;6.58;66.36
84245;BME280;74383;44.552;18.100;2023-12-20T10:21:00;99254.63;;;6.89;64.75
84245;BME280;74383;44.552;18.100;2023-12-20T10:23:30;99241.84;;;7.25;64.31
84245;BME280;74383;44.552;18.100;2023-12-20T10:26:20;99240.81;;;7.52;63.71
84245;BME280;74383;44.552;18.100;2023-12-20T10:28:59;99243.22;;;7.67;62.53
84245;BME280;74383;44.552;18.100;2023-12-20T10:31:34;99242.13;;;8.01;61.53
84245;BME280;74383;44.552;18.100;2023-12-20T10:34:01;99249.44;;;8.05;60.84
84245;BME280;74383;44.552;18.100;2023-12-20T10:36:29;99244.09;;;8.25;60.75
84245;BME280;74383;44.552;18.100;2023-12-20T10:38:56;99238.88;;;8.56;60.20
84245;BME280;74383;44.552;18.100;2023-12-20T10:41:28;99234.34;;;8.19;59.78
84245;BME280;74383;44.552;18.100;2023-12-20T10:43:57;99229.16;;;8.44;58.65
84245;BME280;74383;44.552;18.100;2023-12-20T10:46:24;99233.88;;;8.42;58.76
84245;BME280;74383;44.552;18.100;2023-12-20T10:48:53;99225.31;;;8.46;59.87
84245;BME280;74383;44.552;18.100;2023-12-20T10:51:20;99221.44;;;7.91;61.09
84245;BME280;74383;44.552;18.100;2023-12-20T10:53:50;99213.97;;;7.68;61.67
84245;BME280;74383;44.552;18.100;2023-12-20T10:56:17;99209.84;;;7.99;60.74
84245;BME280;74383;44.552;18.100;2023-12-20T10:58:44;99220.16;;;8.13;61.26
84245;BME280;74383;44.552;18.100;2023-12-20T11:01:15;99213.16;;;8.32;61.10
84245;BME280;74383;44.552;18.100;2023-12-20T11:03:54;99212.31;;;8.38;59.44
84245;BME280;74383;44.552;18.100;2023-12-20T11:06:52;99211.47;;;8.44;60.39
84245;BME280;74383;44.552;18.100;2023-12-20T11:09:31;99215.72;;;8.52;60.03
84245;BME280;74383;44.552;18.100;2023-12-20T11:17:08;99213.22;;;8.63;60.42
84245;BME280;74383;44.552;18.100;2023-12-20T11:20:04;99216.81;;;8.75;60.47
84245;BME280;74383;44.552;18.100;2023-12-20T11:22:31;99215.22;;;8.68;60.83
84245;BME280;74383;44.552;18.100;2023-12-20T11:25:15;99203.75;;;8.80;61.75
84245;BME280;74383;44.552;18.100;2023-12-20T11:27:42;99212.81;;;8.91;60.94
84245;BME280;74383;44.552;18.100;2023-12-20T11:30:11;99213.44;;;8.93;61.21
84245;BME280;74383;44.552;18.100;2023-12-20T11:32:36;99221.53;;;8.98;61.25
84245;BME280;74383;44.552;18.100;2023-12-20T11:37:38;99212.78;;;9.22;60.45
84245;BME280;74383;44.552;18.100;2023-12-20T11:40:11;99210.13;;;9.22;59.65
84245;BME280;74383;44.552;18.100;2023-12-20T11:43:06;99211.94;;;8.97;58.94
84245;BME280;74383;44.552;18.100;2023-12-20T11:45:32;99195.97;;;9.10;59.60
84245;BME280;74383;44.552;18.100;2023-12-20T11:47:58;99196.56;;;8.87;60.53
84245;BME280;74383;44.552;18.100;2023-12-20T11:50:24;99199.06;;;9.07;59.81
84245;BME280;74383;44.552;18.100;2023-12-20T11:52:51;99199.97;;;9.19;61.00
84245;BME280;74383;44.552;18.100;2023-12-20T11:55:18;99201.97;;;8.99;59.55
84245;BME280;74383;44.552;18.100;2023-12-20T11:57:44;99195.31;;;9.15;59.16
84245;BME280;74383;44.552;18.100;2023-12-20T12:00:13;99199.34;;;9.42;58.79
84245;BME280;74383;44.552;18.100;2023-12-20T12:02:40;99200.59;;;9.64;59.20
84245;BME280;74383;44.552;18.100;2023-12-20T12:05:06;99203.31;;;9.94;59.09
84245;BME280;74383;44.552;18.100;2023-12-20T12:07:33;99198.91;;;9.88;58.51
84245;BME280;74383;44.552;18.100;2023-12-20T12:09:59;99199.47;;;9.90;57.69
84245;BME280;74383;44.552;18.100;2023-12-20T12:12:24;99189.66;;;9.54;58.31
84245;BME280;74383;44.552;18.100;2023-12-20T12:14:54;99193.72;;;9.75;55.53
84245;BME280;74383;44.552;18.100;2023-12-20T12:17:20;99190.78;;;9.83;55.84
84245;BME280;74383;44.552;18.100;2023-12-20T12:19:45;99198.09;;;10.05;55.65
84245;BME280;74383;44.552;18.100;2023-12-20T12:22:15;99191.88;;;10.12;55.65
84245;BME280;74383;44.552;18.100;2023-12-20T12:24:43;99187.31;;;10.19;54.87
84245;BME280;74383;44.552;18.100;2023-12-20T12:27:10;99196.31;;;10.36;56.07
84245;BME280;74383;44.552;18.100;2023-12-20T12:29:36;99196.31;;;10.66;54.17
84245;BME280;74383;44.552;18.100;2023-12-20T12:32:07;99186.94;;;11.04;53.41
84245;BME280;74383;44.552;18.100;2023-12-20T12:34:33;99190.28;;;11.35;52.25
84245;BME280;74383;44.552;18.100;2023-12-20T12:37:00;99185.56;;;11.48;52.72
84245;BME280;74383;44.552;18.100;2023-12-20T12:39:26;99190.31;;;11.69;51.85
84245;BME280;74383;44.552;18.100;2023-12-20T12:41:52;99188.19;;;11.95;51.67
84245;BME280;74383;44.552;18.100;2023-12-20T12:44:18;99183.88;;;12.17;51.76
84245;BME280;74383;44.552;18.100;2023-12-20T12:46:47;99180.44;;;12.33;51.90
84245;BME280;74383;44.552;18.100;2023-12-20T12:49:16;99177.91;;;12.55;49.90
84245;BME280;74383;44.552;18.100;2023-12-20T12:51:43;99178.81;;;12.77;48.97
84245;BME280;74383;44.552;18.100;2023-12-20T12:54:09;99185.47;;;12.91;47.62
84245;BME280;74383;44.552;18.100;2023-12-20T12:56:35;99175.03;;;13.18;47.38
84245;BME280;74383;44.552;18.100;2023-12-20T12:59:01;99186.53;;;13.40;46.71
84245;BME280;74383;44.552;18.100;2023-12-20T13:01:27;99184.69;;;13.41;46.30
84245;BME280;74383;44.552;18.100;2023-12-20T13:03:53;99181.47;;;13.39;46.84
84245;BME280;74383;44.552;18.100;2023-12-20T13:06:19;99188.09;;;13.36;46.04